Time;durP1;ratioP1;P1;durP2;ratioP2;P2;SDS_P1;SDS_P2;PMS_P1;PMS_P2;Temp;Humidity;BMP_temperature;BMP_pressure;BME280_temperature;BME280_humidity;BME280_pressure;Samples;Min_cycle;Max_cycle;Signal;HPM_P1;HPM_P2
2022/05/18 00:01:13;;;;;;;9.50;8.50;;;;;;;;;;5095162;28;20439;-73
2022/05/18 00:03:42;;;;;;;11.10;7.97;;;;;;;;;;5095271;28;20453;-74
2022/05/18 00:06:10;;;;;;;13.93;9.20;;;;;;;;;;5095402;28;20445;-73
2022/05/18 00:08:37;;;;;;;9.33;8.33;;;;;;;;;;5095242;28;20537;-73
2022/05/18 00:11:07;;;;;;;13.13;9.90;;;;;;;;;;5095304;28;20444;-73
2022/05/18 00:13:34;;;;;;;9.07;8.17;;;;;;;;;;5095136;28;20483;-73
2022/05/18 00:16:01;;;;;;;9.57;8.20;;;;;;;;;;5095210;28;20449;-73
2022/05/18 00:18:29;;;;;;;12.37;9.70;;;;;;;;;;5095072;28;20442;-73
2022/05/18 00:20:56;;;;;;;12.17;9.23;;;;;;;;;;5095355;28;20985;-73
2022/05/18 00:23:23;;;;;;;11.50;8.83;;;;;;;;;;5094576;28;20968;-73
2022/05/18 00:25:50;;;;;;;11.20;8.70;;;;;;;;;;5095133;28;20454;-73
2022/05/18 00:28:19;;;;;;;11.60;9.43;;;;;;;;;;5094859;28;20443;-73
2022/05/18 00:30:46;;;;;;;15.87;9.53;;;;;;;;;;5094630;28;20436;-73
2022/05/18 00:33:13;;;;;;;14.27;11.50;;;;;;;;;;5094625;28;20467;-73
2022/05/18 00:35:41;;;;;;;11.87;8.47;;;;;;;;;;5094825;28;20531;-73
2022/05/18 00:38:08;;;;;;;9.23;8.43;;;;;;;;;;5094906;28;20479;-73
2022/05/18 00:40:37;;;;;;;12.43;8.90;;;;;;;;;;5094363;28;20450;-73
2022/05/18 00:43:04;;;;;;;10.17;9.13;;;;;;;;;;5094811;28;20449;-73
2022/05/18 00:45:33;;;;;;;11.93;10.20;;;;;;;;;;5094297;28;20448;-73
2022/05/18 00:48:00;;;;;;;9.47;8.63;;;;;;;;;;5094008;28;20476;-73
2022/05/18 00:50:30;;;;;;;10.10;8.37;;;;;;;;;;5094649;28;20451;-73
2022/05/18 00:53:00;;;;;;;13.87;8.27;;;;;;;;;;5094159;28;20465;-73
2022/05/18 00:55:29;;;;;;;13.53;10.33;;;;;;;;;;5094305;28;20936;-73
2022/05/18 00:58:02;;;;;;;11.30;9.17;;;;;;;;;;5094461;28;20443;-72
2022/05/18 01:00:29;;;;;;;11.40;10.17;;;;;;;;;;5094334;28;20795;-72
2022/05/18 01:03:01;;;;;;;11.50;9.60;;;;;;;;;;5094068;28;20452;-72
2022/05/18 01:05:30;;;;;;;13.23;10.23;;;;;;;;;;5094482;28;20520;-73
2022/05/18 01:07:59;;;;;;;12.70;10.93;;;;;;;;;;5094522;28;20937;-73
2022/05/18 01:10:28;;;;;;;11.60;10.40;;;;;;;;;;5094315;28;20445;-73
2022/05/18 01:12:55;;;;;;;13.70;10.40;;;;;;;;;;5093971;28;20489;-73
2022/05/18 01:15:23;;;;;;;10.90;9.73;;;;;;;;;;5094240;28;20882;-73
2022/05/18 01:17:53;;;;;;;12.83;10.70;;;;;;;;;;5094298;28;20514;-73
2022/05/18 01:20:23;;;;;;;16.03;11.07;;;;;;;;;;5094386;28;20480;-73
2022/05/18 01:22:53;;;;;;;16.47;10.43;;;;;;;;;;5094585;28;20791;-73
2022/05/18 01:25:25;;;;;;;16.17;11.23;;;;;;;;;;5094163;28;20520;-73
2022/05/18 01:27:54;;;;;;;11.97;10.33;;;;;;;;;;5093710;28;20433;-73
2022/05/18 01:30:21;;;;;;;11.90;10.70;;;;;;;;;;5094281;28;20463;-73
2022/05/18 01:32:51;;;;;;;14.10;11.10;;;;;;;;;;5093811;28;20479;-73
2022/05/18 01:35:19;;;;;;;14.93;11.10;;;;;;;;;;5094260;28;20444;-74
2022/05/18 01:37:46;;;;;;;14.13;12.03;;;;;;;;;;5093477;28;20529;-73
2022/05/18 01:40:19;;;;;;;13.27;11.97;;;;;;;;;;5094114;28;20458;-73
2022/05/18 01:42:47;;;;;;;13.23;11.87;;;;;;;;;;5093954;28;20432;-73
2022/05/18 01:45:16;;;;;;;13.27;11.20;;;;;;;;;;5094030;28;20594;-74
2022/05/18 01:47:43;;;;;;;18.43;12.07;;;;;;;;;;5093678;28;20557;-73
2022/05/18 01:50:13;;;;;;;14.47;11.30;;;;;;;;;;5093770;28;20432;-73
2022/05/18 01:52:40;;;;;;;12.60;11.20;;;;;;;;;;5093553;28;20831;-73
2022/05/18 01:55:09;;;;;;;13.80;12.30;;;;;;;;;;5093640;28;20531;-73
2022/05/18 01:57:37;;;;;;;14.80;12.40;;;;;;;;;;5093373;28;20529;-73
2022/05/18 02:00:05;;;;;;;14.80;12.37;;;;;;;;;;5093599;28;20445;-73
2022/05/18 02:02:34;;;;;;;14.83;12.90;;;;;;;;;;5093657;28;20927;-73
2022/05/18 02:05:01;;;;;;;13.70;12.30;;;;;;;;;;5097766;28;20542;-74
2022/05/18 02:07:28;;;;;;;19.33;13.40;;;;;;;;;;5097960;28;20786;-73
2022/05/18 02:09:56;;;;;;;17.83;13.47;;;;;;;;;;5097760;28;20450;-73
2022/05/18 02:12:23;;;;;;;16.27;14.03;;;;;;;;;;5097547;28;20933;-73
2022/05/18 02:14:50;;;;;;;15.07;13.67;;;;;;;;;;5097278;28;20437;-73
2022/05/18 02:17:17;;;;;;;19.17;12.97;;;;;;;;;;5097342;28;20459;-73
2022/05/18 02:19:46;;;;;;;16.00;13.70;;;;;;;;;;5097757;28;20436;-73
2022/05/18 02:22:13;;;;;;;18.30;14.07;;;;;;;;;;5098174;28;20447;-73
2022/05/18 02:24:40;;;;;;;17.23;14.53;;;;;;;;;;5097082;28;20440;-73
2022/05/18 02:27:07;;;;;;;17.93;13.70;;;;;;;;;;5097623;28;20524;-73
2022/05/18 02:29:35;;;;;;;16.70;14.23;;;;;;;;;;5097298;28;20501;-73
2022/05/18 02:32:02;;;;;;;18.97;13.90;;;;;;;;;;5097783;28;20445;-73
2022/05/18 02:34:30;;;;;;;15.43;13.83;;;;;;;;;;5097505;28;20479;-73
2022/05/18 02:36:58;;;;;;;18.20;13.30;;;;;;;;;;5097291;28;20450;-73
2022/05/18 02:39:26;;;;;;;17.03;15.40;;;;;;;;;;5097127;28;20434;-73
2022/05/18 02:41:53;;;;;;;16.40;15.00;;;;;;;;;;5096835;28;20451;-73
2022/05/18 02:44:20;;;;;;;20.10;15.10;;;;;;;;;;5096748;28;20447;-73
2022/05/18 02:46:48;;;;;;;19.97;14.93;;;;;;;;;;5097394;28;20554;-72
2022/05/18 02:49:16;;;;;;;17.77;16.07;;;;;;;;;;5096642;28;20535;-73
2022/05/18 02:51:43;;;;;;;16.03;14.00;;;;;;;;;;5096661;28;20442;-73
2022/05/18 02:56:53;;;;;;;18.70;15.97;;;;;;;;;;5096551;28;20415;-73
2022/05/18 02:59:20;;;;;;;17.03;14.43;;;;;;;;;;5096458;28;20444;-73
2022/05/18 03:01:47;;;;;;;21.87;16.20;;;;;;;;;;5096450;28;20440;-73
2022/05/18 03:04:15;;;;;;;17.13;15.30;;;;;;;;;;5096655;28;20451;-73
2022/05/18 03:06:42;;;;;;;17.90;16.00;;;;;;;;;;5097188;28;20489;-73
2022/05/18 03:09:10;;;;;;;17.63;15.97;;;;;;;;;;5096607;28;20435;-73
2022/05/18 03:11:38;;;;;;;16.60;14.87;;;;;;;;;;5096602;28;20468;-73
2022/05/18 03:14:05;;;;;;;18.07;16.13;;;;;;;;;;5096112;28;20487;-72
2022/05/18 03:16:33;;;;;;;19.40;16.30;;;;;;;;;;5095969;28;20446;-73
2022/05/18 03:19:01;;;;;;;19.40;16.27;;;;;;;;;;5096021;28;20502;-72
2022/05/18 03:24:13;;;;;;;26.03;17.47;;;;;;;;;;5096128;28;20891;-73
2022/05/18 03:26:41;;;;;;;21.63;17.90;;;;;;;;;;5096013;28;20448;-73
2022/05/18 03:29:09;;;;;;;19.40;15.40;;;;;;;;;;5096204;28;20440;-72
2022/05/18 03:31:36;;;;;;;17.40;15.50;;;;;;;;;;5095945;28;20439;-74
2022/05/18 03:34:03;;;;;;;17.77;16.00;;;;;;;;;;5095831;28;20477;-73
2022/05/18 03:36:31;;;;;;;18.27;16.63;;;;;;;;;;5096047;28;20474;-73
2022/05/18 03:38:59;;;;;;;18.93;16.27;;;;;;;;;;5096507;28;20524;-73
2022/05/18 03:41:26;;;;;;;17.50;15.70;;;;;;;;;;5096002;28;20811;-74
2022/05/18 03:43:55;;;;;;;18.83;16.80;;;;;;;;;;5096006;28;20446;-73
2022/05/18 03:46:22;;;;;;;18.33;16.30;;;;;;;;;;5095257;28;20478;-74
2022/05/18 03:48:49;;;;;;;17.87;15.77;;;;;;;;;;5095941;28;20769;-76
2022/05/18 03:51:17;;;;;;;18.60;16.77;;;;;;;;;;5095526;28;20436;-72
2022/05/18 03:53:46;;;;;;;18.27;16.37;;;;;;;;;;5095728;28;20480;-76
2022/05/18 03:56:13;;;;;;;19.97;17.20;;;;;;;;;;5095806;28;20454;-76
2022/05/18 03:58:41;;;;;;;25.50;18.13;;;;;;;;;;5095742;28;20444;-75
2022/05/18 04:01:10;;;;;;;18.30;16.40;;;;;;;;;;5095863;28;20439;-75
2022/05/18 04:03:38;;;;;;;20.60;16.60;;;;;;;;;;5094057;28;20556;-75
2022/05/18 04:06:06;;;;;;;20.13;17.30;;;;;;;;;;5094495;28;20449;-74
2022/05/18 04:08:33;;;;;;;18.70;16.80;;;;;;;;;;5094758;28;20444;-75
2022/05/18 04:11:01;;;;;;;18.13;16.20;;;;;;;;;;5094654;28;20441;-74
2022/05/18 04:13:28;;;;;;;20.57;18.37;;;;;;;;;;5095186;28;20478;-75
2022/05/18 04:15:56;;;;;;;18.53;16.73;;;;;;;;;;5094614;28;20439;-75
2022/05/18 04:18:25;;;;;;;20.33;18.20;;;;;;;;;;5094745;28;20928;-75
2022/05/18 04:20:52;;;;;;;20.10;16.40;;;;;;;;;;5094873;28;20442;-75
2022/05/18 04:23:20;;;;;;;19.13;16.67;;;;;;;;;;5095283;28;20885;-76
2022/05/18 04:25:47;;;;;;;19.40;17.40;;;;;;;;;;5095032;28;20450;-75
2022/05/18 04:28:14;;;;;;;20.47;17.03;;;;;;;;;;5094141;28;20432;-74
2022/05/18 04:30:42;;;;;;;23.50;16.50;;;;;;;;;;5095226;28;20442;-75
2022/05/18 04:33:10;;;;;;;24.30;16.87;;;;;;;;;;5094755;28;20877;-75
2022/05/18 04:35:38;;;;;;;24.00;17.63;;;;;;;;;;5094266;28;20436;-75
2022/05/18 04:38:06;;;;;;;19.60;17.60;;;;;;;;;;5095210;28;20462;-76
2022/05/18 04:40:33;;;;;;;20.60;18.40;;;;;;;;;;5094758;28;20445;-75
2022/05/18 04:43:00;;;;;;;18.10;16.17;;;;;;;;;;5094837;28;20447;-75
2022/05/18 04:45:28;;;;;;;19.60;16.10;;;;;;;;;;5094755;28;20527;-75
2022/05/18 04:47:55;;;;;;;18.00;16.10;;;;;;;;;;5094802;28;20959;-75
2022/05/18 04:50:23;;;;;;;23.07;17.17;;;;;;;;;;5094843;28;20476;-74
2022/05/18 04:52:52;;;;;;;22.17;16.97;;;;;;;;;;5094812;28;20441;-76
2022/05/18 04:55:19;;;;;;;30.30;23.80;;;;;;;;;;5094685;28;20915;-75
2022/05/18 04:57:46;;;;;;;44.17;32.20;;;;;;;;;;5094561;28;20532;-74
2022/05/18 05:00:15;;;;;;;34.80;27.10;;;;;;;;;;5094413;28;20434;-74
2022/05/18 05:02:42;;;;;;;28.00;21.27;;;;;;;;;;5094202;28;20491;-75
2022/05/18 05:05:13;;;;;;;21.57;16.10;;;;;;;;;;5094115;28;20505;-74
2022/05/18 05:07:41;;;;;;;20.40;17.20;;;;;;;;;;5094529;28;20816;-74
2022/05/18 05:10:10;;;;;;;20.10;15.80;;;;;;;;;;5094888;28;20433;-74
2022/05/18 05:12:37;;;;;;;18.30;14.33;;;;;;;;;;5094226;28;20855;-77
2022/05/18 05:15:05;;;;;;;21.67;14.60;;;;;;;;;;5094188;28;20487;-73
2022/05/18 05:17:32;;;;;;;20.87;14.43;;;;;;;;;;5094360;28;20443;-78
2022/05/18 05:20:00;;;;;;;16.83;14.43;;;;;;;;;;5093876;28;20440;-69
2022/05/18 05:22:27;;;;;;;21.60;13.70;;;;;;;;;;5094190;28;20444;-68
2022/05/18 05:24:54;;;;;;;24.43;13.50;;;;;;;;;;5093816;28;20527;-69
2022/05/18 05:27:23;;;;;;;21.87;14.17;;;;;;;;;;5093693;28;20444;-69
2022/05/18 05:29:50;;;;;;;19.50;15.10;;;;;;;;;;5094435;28;20438;-69
2022/05/18 05:32:17;;;;;;;16.23;14.67;;;;;;;;;;5093639;28;20441;-69
2022/05/18 05:34:45;;;;;;;21.10;14.03;;;;;;;;;;5093882;28;20481;-69
2022/05/18 05:37:12;;;;;;;17.10;12.73;;;;;;;;;;5093969;28;20436;-69
2022/05/18 05:39:40;;;;;;;24.23;20.87;;;;;;;;;;5093567;28;20529;-69
2022/05/18 05:42:07;;;;;;;28.00;19.23;;;;;;;;;;5093663;28;20443;-69
2022/05/18 05:44:36;;;;;;;17.83;13.07;;;;;;;;;;5093799;28;20450;-69
2022/05/18 05:47:04;;;;;;;21.03;12.40;;;;;;;;;;5093764;28;20485;-69
2022/05/18 05:49:32;;;;;;;19.37;13.93;;;;;;;;;;5093639;28;20992;-69
2022/05/18 05:51:59;;;;;;;13.70;11.60;;;;;;;;;;5093633;28;20447;-69
2022/05/18 05:54:27;;;;;;;13.73;10.93;;;;;;;;;;5093298;28;20480;-68
2022/05/18 05:56:54;;;;;;;18.20;11.37;;;;;;;;;;5093247;28;20453;-68
2022/05/18 05:59:21;;;;;;;13.77;11.73;;;;;;;;;;5093327;28;20441;-68
2022/05/18 06:01:50;;;;;;;16.00;10.40;;;;;;;;;;5093563;28;20439;-69
2022/05/18 06:04:18;;;;;;;15.57;10.23;;;;;;;;;;5093746;28;20481;-69
2022/05/18 06:06:45;;;;;;;11.33;8.80;;;;;;;;;;5093483;28;20451;-69
2022/05/18 06:09:13;;;;;;;12.10;8.20;;;;;;;;;;5093601;28;20843;-69
2022/05/18 06:11:40;;;;;;;10.83;7.10;;;;;;;;;;5093170;28;20485;-69
2022/05/18 06:14:07;;;;;;;10.10;8.80;;;;;;;;;;5093459;28;20472;-68
2022/05/18 06:16:35;;;;;;;10.97;7.83;;;;;;;;;;5092988;28;20542;-68
2022/05/18 06:19:03;;;;;;;10.73;8.10;;;;;;;;;;5093162;28;20454;-69
2022/05/18 06:21:31;;;;;;;9.53;7.03;;;;;;;;;;5093346;28;20923;-69
2022/05/18 06:23:58;;;;;;;11.73;8.07;;;;;;;;;;5093069;28;20535;-69
2022/05/18 06:26:26;;;;;;;13.63;9.93;;;;;;;;;;5092946;28;20446;-68
2022/05/18 06:28:53;;;;;;;10.53;8.73;;;;;;;;;;5093306;28;20533;-69
2022/05/18 06:31:21;;;;;;;11.00;7.43;;;;;;;;;;5093365;28;20524;-69
2022/05/18 06:33:48;;;;;;;10.57;7.43;;;;;;;;;;5093244;28;20438;-69
2022/05/18 06:36:16;;;;;;;11.07;6.17;;;;;;;;;;5093338;28;20442;-68
2022/05/18 06:38:44;;;;;;;8.87;6.53;;;;;;;;;;5093206;28;20439;-68
2022/05/18 06:41:23;;;;;;;9.17;7.20;;;;;;;;;;5093165;28;20442;-68
2022/05/18 06:43:50;;;;;;;10.73;6.77;;;;;;;;;;5093191;28;20431;-69
2022/05/18 06:46:18;;;;;;;9.77;6.37;;;;;;;;;;5093433;28;20503;-69
2022/05/18 06:48:45;;;;;;;9.83;7.33;;;;;;;;;;5093088;28;20512;-69
2022/05/18 06:51:12;;;;;;;9.30;6.07;;;;;;;;;;5095689;28;20860;-69
2022/05/18 06:53:41;;;;;;;8.90;6.50;;;;;;;;;;5096831;28;20442;-69
2022/05/18 06:56:08;;;;;;;6.40;5.73;;;;;;;;;;5096837;28;20449;-68
2022/05/18 06:58:35;;;;;;;8.00;6.23;;;;;;;;;;5096790;28;20526;-68
2022/05/18 07:01:06;;;;;;;7.30;6.13;;;;;;;;;;5096853;28;20435;-69
2022/05/18 07:03:33;;;;;;;8.30;5.53;;;;;;;;;;5096412;28;20427;-69
2022/05/18 07:06:00;;;;;;;7.80;6.20;;;;;;;;;;5096904;28;20837;-69
2022/05/18 07:08:27;;;;;;;9.43;5.47;;;;;;;;;;5096269;28;20442;-68
2022/05/18 07:10:56;;;;;;;6.50;5.90;;;;;;;;;;5096706;28;20790;-70
2022/05/18 07:13:23;;;;;;;8.27;5.20;;;;;;;;;;5096155;28;20963;-69
2022/05/18 07:15:50;;;;;;;8.63;4.63;;;;;;;;;;5096380;28;20475;-69
2022/05/18 07:18:17;;;;;;;9.90;5.00;;;;;;;;;;5096375;28;20443;-69
2022/05/18 07:20:45;;;;;;;6.80;5.00;;;;;;;;;;5096497;28;20809;-69
2022/05/18 07:23:13;;;;;;;6.83;5.10;;;;;;;;;;5096306;28;20533;-69
2022/05/18 07:25:40;;;;;;;9.23;5.07;;;;;;;;;;5097024;28;20453;-69
2022/05/18 07:28:10;;;;;;;5.43;4.93;;;;;;;;;;5096394;28;20440;-69
2022/05/18 07:30:38;;;;;;;9.80;5.47;;;;;;;;;;5096698;28;20431;-69
2022/05/18 07:33:06;;;;;;;5.97;5.30;;;;;;;;;;5096177;28;20436;-69
2022/05/18 07:35:34;;;;;;;8.17;4.80;;;;;;;;;;5095636;28;20481;-69
2022/05/18 07:38:01;;;;;;;6.77;5.70;;;;;;;;;;5095922;28;20526;-69
2022/05/18 07:40:29;;;;;;;5.93;4.73;;;;;;;;;;5095835;28;20874;-69
2022/05/18 07:42:57;;;;;;;4.47;4.17;;;;;;;;;;5095992;28;20445;-69
2022/05/18 07:45:26;;;;;;;7.57;4.97;;;;;;;;;;5095971;28;20438;-69
2022/05/18 07:47:53;;;;;;;6.50;5.00;;;;;;;;;;5095469;28;20479;-69
2022/05/18 07:50:21;;;;;;;6.10;4.40;;;;;;;;;;5095890;28;20482;-69
2022/05/18 07:52:48;;;;;;;10.47;7.53;;;;;;;;;;5095711;28;20439;-69
2022/05/18 07:55:15;;;;;;;5.60;5.10;;;;;;;;;;5095342;28;20486;-69
2022/05/18 07:57:43;;;;;;;5.80;4.50;;;;;;;;;;5095399;28;20445;-69
2022/05/18 08:00:11;;;;;;;5.60;4.80;;;;;;;;;;5095297;28;20443;-69
2022/05/18 08:02:39;;;;;;;8.77;4.60;;;;;;;;;;5095514;28;20444;-69
2022/05/18 08:05:07;;;;;;;6.23;5.47;;;;;;;;;;5095237;28;20441;-69
2022/05/18 08:07:36;;;;;;;5.93;4.80;;;;;;;;;;5095171;28;20472;-69
2022/05/18 08:15:33;;;;;;;9.50;4.60;;;;;;;;;;5095169;28;20457;-70
2022/05/18 08:18:01;;;;;;;8.00;4.43;;;;;;;;;;5094827;28;20539;-70
2022/05/18 08:20:30;;;;;;;6.53;4.70;;;;;;;;;;5095226;28;20445;-69
2022/05/18 08:22:57;;;;;;;5.13;4.67;;;;;;;;;;5094790;28;20443;-69
2022/05/18 08:25:24;;;;;;;7.27;4.30;;;;;;;;;;5094863;28;20791;-69
2022/05/18 08:27:51;;;;;;;9.33;4.37;;;;;;;;;;5094990;28;20447;-69
2022/05/18 08:30:20;;;;;;;10.63;4.40;;;;;;;;;;5094740;28;20532;-69
2022/05/18 08:32:47;;;;;;;7.20;4.83;;;;;;;;;;5094612;28;20446;-69
2022/05/18 08:35:16;;;;;;;5.80;4.40;;;;;;;;;;5094408;28;20470;-70
2022/05/18 08:37:44;;;;;;;6.80;4.50;;;;;;;;;;5094490;28;20484;-69
2022/05/18 08:40:16;;;;;;;4.73;3.77;;;;;;;;;;5094407;28;20442;-69
2022/05/18 08:42:43;;;;;;;6.37;4.40;;;;;;;;;;5094548;28;20427;-69
2022/05/18 08:45:11;;;;;;;6.63;4.47;;;;;;;;;;5094679;28;20449;-69
2022/05/18 08:47:42;;;;;;;4.63;4.20;;;;;;;;;;5095021;28;20478;-69
2022/05/18 08:50:12;;;;;;;5.80;4.13;;;;;;;;;;5094810;28;20483;-69
2022/05/18 08:52:58;;;;;;;4.50;4.13;;;;;;;;;;5094233;28;20466;-69
2022/05/18 08:55:41;;;;;;;5.80;3.73;;;;;;;;;;5094789;28;20474;-69
2022/05/18 08:58:11;;;;;;;6.53;3.80;;;;;;;;;;5094859;28;20431;-69
2022/05/18 09:00:42;;;;;;;4.40;4.03;;;;;;;;;;5094394;28;20442;-69
2022/05/18 09:03:13;;;;;;;4.23;3.80;;;;;;;;;;5095106;28;20437;-70
2022/05/18 09:05:44;;;;;;;5.67;3.90;;;;;;;;;;5094065;28;20444;-70
2022/05/18 09:08:14;;;;;;;7.53;4.27;;;;;;;;;;5094671;28;20455;-69
2022/05/18 09:10:45;;;;;;;4.40;3.80;;;;;;;;;;5094156;28;20441;-70
2022/05/18 09:13:13;;;;;;;9.43;4.60;;;;;;;;;;5093379;28;20434;-69
2022/05/18 09:15:42;;;;;;;4.30;3.90;;;;;;;;;;5093631;28;20480;-69
2022/05/18 09:18:13;;;;;;;5.07;3.80;;;;;;;;;;5093803;28;20931;-70
2022/05/18 09:20:46;;;;;;;4.60;4.20;;;;;;;;;;5093734;28;20439;-69
2022/05/18 09:23:22;;;;;;;7.40;3.77;;;;;;;;;;5093864;28;20433;-71
2022/05/18 09:25:57;;;;;;;4.33;3.93;;;;;;;;;;5094049;28;20428;-70
2022/05/18 09:28:31;;;;;;;4.97;3.13;;;;;;;;;;5094105;28;20892;-70
2022/05/18 09:31:05;;;;;;;5.63;3.83;;;;;;;;;;5094108;28;20432;-70
2022/05/18 09:33:51;;;;;;;4.63;3.30;;;;;;;;;;5094244;28;20525;-70
2022/05/18 09:36:25;;;;;;;3.77;3.30;;;;;;;;;;5094248;28;20493;-70
2022/05/18 09:38:56;;;;;;;7.60;3.70;;;;;;;;;;5093573;28;20432;-70
2022/05/18 09:41:28;;;;;;;7.83;3.97;;;;;;;;;;5093638;28;20433;-69
2022/05/18 09:44:00;;;;;;;4.53;3.43;;;;;;;;;;5093379;28;20534;-69
2022/05/18 09:46:28;;;;;;;6.73;3.60;;;;;;;;;;5093237;28;21016;-69
2022/05/18 09:48:58;;;;;;;6.67;3.50;;;;;;;;;;5093410;28;20533;-70
2022/05/18 09:51:26;;;;;;;5.50;3.70;;;;;;;;;;5094074;28;20504;-69
2022/05/18 09:53:54;;;;;;;5.73;4.00;;;;;;;;;;5093405;28;20444;-70
2022/05/18 09:56:23;;;;;;;5.63;5.03;;;;;;;;;;5093542;28;20480;-69
2022/05/18 09:58:52;;;;;;;6.30;3.30;;;;;;;;;;5093357;28;20523;-69
2022/05/18 10:09:41;;;;;;;6.77;4.17;;;;;;;;;;5093351;28;20404;-68
2022/05/18 10:12:17;;;;;;;6.57;3.30;;;;;;;;;;5093503;28;20469;-69
2022/05/18 10:14:47;;;;;;;4.30;3.13;;;;;;;;;;5093665;28;20464;-69
2022/05/18 10:17:15;;;;;;;9.70;3.30;;;;;;;;;;5093250;28;20447;-69
2022/05/18 10:19:44;;;;;;;5.63;3.70;;;;;;;;;;5093337;28;20446;-69
2022/05/18 10:22:13;;;;;;;4.17;3.40;;;;;;;;;;5093092;28;20503;-70
2022/05/18 10:24:44;;;;;;;4.40;3.33;;;;;;;;;;5094817;28;20966;-69
2022/05/18 10:27:13;;;;;;;7.20;3.63;;;;;;;;;;5097699;28;20430;-69
2022/05/18 10:29:40;;;;;;;7.23;3.70;;;;;;;;;;5097260;28;20422;-70
2022/05/18 10:32:10;;;;;;;5.27;3.43;;;;;;;;;;5097475;28;20440;-69
2022/05/18 10:34:42;;;;;;;7.40;4.57;;;;;;;;;;5098095;28;20520;-69
2022/05/18 10:37:11;;;;;;;6.07;3.23;;;;;;;;;;5097703;28;20436;-69
2022/05/18 10:39:40;;;;;;;4.33;3.73;;;;;;;;;;5097108;28;20537;-69
2022/05/18 10:42:17;;;;;;;5.10;4.10;;;;;;;;;;5096880;28;20444;-69
2022/05/18 10:44:45;;;;;;;5.40;4.30;;;;;;;;;;5097134;28;20469;-69
2022/05/18 10:47:20;;;;;;;4.50;4.10;;;;;;;;;;5097019;28;20473;-68
2022/05/18 10:49:48;;;;;;;3.70;3.40;;;;;;;;;;5097063;28;20414;-69
2022/05/18 10:52:16;;;;;;;4.80;3.37;;;;;;;;;;5097029;28;20478;-69
2022/05/18 10:54:53;;;;;;;4.27;3.87;;;;;;;;;;5096943;28;20433;-69
2022/05/18 10:57:22;;;;;;;5.77;3.60;;;;;;;;;;5096711;28;20434;-68
2022/05/18 10:59:51;;;;;;;6.20;3.93;;;;;;;;;;5096922;28;20443;-68
2022/05/18 11:02:27;;;;;;;4.73;3.30;;;;;;;;;;5096849;28;20446;-70
2022/05/18 11:04:57;;;;;;;6.40;3.80;;;;;;;;;;5096979;28;20790;-69
2022/05/18 11:07:27;;;;;;;4.63;3.20;;;;;;;;;;5096887;28;20801;-68
2022/05/18 11:09:54;;;;;;;5.03;3.53;;;;;;;;;;5096670;28;20446;-69
2022/05/18 11:12:28;;;;;;;5.87;3.93;;;;;;;;;;5096467;28;20438;-68
2022/05/18 11:14:59;;;;;;;7.23;3.90;;;;;;;;;;5096444;28;20438;-70
2022/05/18 11:17:36;;;;;;;4.03;3.63;;;;;;;;;;5096128;28;20897;-67
2022/05/18 11:20:07;;;;;;;3.30;3.00;;;;;;;;;;5096770;28;20503;-74
2022/05/18 11:22:38;;;;;;;11.50;3.40;;;;;;;;;;5096504;28;20843;-75
2022/05/18 11:25:11;;;;;;;4.00;3.47;;;;;;;;;;5096612;28;20521;-73
2022/05/18 11:27:42;;;;;;;3.67;3.37;;;;;;;;;;5096320;28;20440;-74
2022/05/18 11:30:11;;;;;;;3.60;3.30;;;;;;;;;;5095954;28;20427;-74
2022/05/18 11:32:44;;;;;;;3.67;3.30;;;;;;;;;;5096132;28;20422;-74
2022/05/18 11:35:19;;;;;;;3.47;3.17;;;;;;;;;;5096497;28;20403;-74
2022/05/18 11:37:54;;;;;;;5.10;3.30;;;;;;;;;;5094697;28;20448;-73
2022/05/18 11:40:26;;;;;;;4.70;3.10;;;;;;;;;;5095462;28;20405;-73
2022/05/18 11:43:02;;;;;;;3.40;3.10;;;;;;;;;;5095603;28;20433;-73
2022/05/18 11:45:34;;;;;;;3.40;3.07;;;;;;;;;;5095591;28;20497;-73
2022/05/18 11:48:12;;;;;;;3.90;3.50;;;;;;;;;;5095469;28;20472;-73
2022/05/18 11:50:43;;;;;;;3.23;2.93;;;;;;;;;;5095863;28;20434;-73
2022/05/18 11:53:15;;;;;;;4.20;3.47;;;;;;;;;;5096393;28;20430;-74
2022/05/18 11:55:50;;;;;;;3.60;3.00;;;;;;;;;;5095650;28;20493;-73
2022/05/18 11:58:24;;;;;;;5.87;2.70;;;;;;;;;;5095469;28;20396;-74
2022/05/18 12:00:56;;;;;;;4.23;2.40;;;;;;;;;;5096101;28;20415;-73
2022/05/18 12:03:34;;;;;;;5.50;2.60;;;;;;;;;;5095339;28;20409;-74
2022/05/18 12:06:08;;;;;;;3.43;3.13;;;;;;;;;;5095138;28;20422;-73
2022/05/18 12:08:56;;;;;;;5.40;2.90;;;;;;;;;;5095577;28;20414;-73
2022/05/18 12:11:26;;;;;;;6.20;3.27;;;;;;;;;;5095288;28;20425;-74
2022/05/18 12:13:58;;;;;;;5.60;3.10;;;;;;;;;;5095222;28;20461;-74
2022/05/18 12:16:28;;;;;;;4.60;3.30;;;;;;;;;;5095170;28;20485;-74
2022/05/18 12:19:00;;;;;;;4.23;2.90;;;;;;;;;;5095139;28;20419;-74
2022/05/18 12:21:30;;;;;;;4.20;3.80;;;;;;;;;;5095137;28;20769;-73
2022/05/18 12:24:01;;;;;;;3.20;3.00;;;;;;;;;;5095183;28;20413;-74
2022/05/18 12:26:29;;;;;;;3.30;3.03;;;;;;;;;;5094735;28;20491;-74
2022/05/18 12:28:57;;;;;;;3.33;3.03;;;;;;;;;;5095036;28;20451;-73
2022/05/18 12:31:26;;;;;;;5.87;3.13;;;;;;;;;;5094829;28;20418;-74
2022/05/18 12:34:02;;;;;;;4.43;3.50;;;;;;;;;;5094749;28;20452;-73
2022/05/18 12:36:33;;;;;;;3.27;2.97;;;;;;;;;;5095081;28;20796;-73
2022/05/18 12:39:08;;;;;;;5.23;3.00;;;;;;;;;;5094683;28;20479;-74
2022/05/18 12:41:39;;;;;;;3.10;2.90;;;;;;;;;;5095162;28;20421;-73
2022/05/18 12:44:08;;;;;;;3.43;2.70;;;;;;;;;;5094832;28;20437;-74
2022/05/18 12:46:38;;;;;;;4.60;3.80;;;;;;;;;;5094187;28;20468;-73
2022/05/18 12:49:09;;;;;;;4.30;2.97;;;;;;;;;;5093746;28;20444;-74
2022/05/18 12:51:45;;;;;;;3.70;3.13;;;;;;;;;;5094068;28;20404;-73
2022/05/18 12:54:24;;;;;;;4.73;3.43;;;;;;;;;;5094823;28;20438;-74
2022/05/18 12:56:53;;;;;;;5.50;2.93;;;;;;;;;;5094440;28;20460;-74
2022/05/18 12:59:22;;;;;;;4.27;3.20;;;;;;;;;;5094191;28;20449;-74
2022/05/18 13:01:53;;;;;;;3.30;2.97;;;;;;;;;;5094977;28;20450;-73
2022/05/18 13:04:40;;;;;;;3.43;2.77;;;;;;;;;;5094813;28;20408;-74
2022/05/18 13:07:20;;;;;;;4.80;2.80;;;;;;;;;;5094087;28;20488;-73
2022/05/18 13:09:47;;;;;;;4.30;3.23;;;;;;;;;;5093953;28;20426;-74
2022/05/18 13:12:30;;;;;;;4.90;3.03;;;;;;;;;;5093875;28;20927;-74
2022/05/18 13:14:59;;;;;;;3.63;3.03;;;;;;;;;;5081890;28;20428;-74
2022/05/18 13:17:41;;;;;;;3.20;2.90;;;;;;;;;;5094032;28;20498;-74
2022/05/18 13:20:29;;;;;;;7.30;2.60;;;;;;;;;;5094048;28;20433;-75
2022/05/18 13:23:02;;;;;;;6.73;2.83;;;;;;;;;;5094398;28;20775;-75
2022/05/18 13:25:30;;;;;;;2.93;2.73;;;;;;;;;;5094183;28;20805;-75
2022/05/18 13:27:58;;;;;;;6.80;3.23;;;;;;;;;;5093934;28;20503;-75
2022/05/18 13:30:43;;;;;;;4.07;3.67;;;;;;;;;;5093474;28;20518;-75
2022/05/18 13:33:12;;;;;;;3.13;2.83;;;;;;;;;;5093566;28;20474;-74
2022/05/18 13:35:41;;;;;;;3.90;3.00;;;;;;;;;;5094455;28;20519;-73
2022/05/18 13:38:11;;;;;;;5.17;2.83;;;;;;;;;;5093397;28;20442;-73
2022/05/18 13:40:39;;;;;;;7.13;3.40;;;;;;;;;;5093526;28;20474;-73
2022/05/18 13:43:07;;;;;;;5.20;4.70;;;;;;;;;;5093289;28;20436;-74
2022/05/18 13:45:35;;;;;;;3.20;2.90;;;;;;;;;;5093620;28;20474;-73
2022/05/18 13:48:03;;;;;;;2.97;2.63;;;;;;;;;;5094195;28;20479;-74
2022/05/18 13:50:32;;;;;;;2.93;2.53;;;;;;;;;;5093091;28;20483;-73
2022/05/18 13:53:01;;;;;;;4.83;3.00;;;;;;;;;;5093580;28;20446;-74
2022/05/18 13:55:30;;;;;;;4.83;3.27;;;;;;;;;;5093754;28;20529;-77
2022/05/18 13:57:58;;;;;;;4.43;3.10;;;;;;;;;;5093087;28;20503;-81
2022/05/18 14:00:29;;;;;;;4.43;3.10;;;;;;;;;;5093021;28;20454;-76
2022/05/18 14:02:57;;;;;;;5.87;3.13;;;;;;;;;;5093348;28;20446;-75
2022/05/18 14:05:24;;;;;;;2.77;2.57;;;;;;;;;;5093140;28;21044;-75
2022/05/18 14:07:52;;;;;;;6.03;3.10;;;;;;;;;;5092894;28;20443;-75
2022/05/18 14:10:22;;;;;;;6.37;2.80;;;;;;;;;;5093326;28;20443;-76
2022/05/18 14:12:50;;;;;;;3.40;2.67;;;;;;;;;;5093051;28;20474;-76
2022/05/18 14:15:19;;;;;;;5.23;2.50;;;;;;;;;;5093371;28;20478;-80
2022/05/18 14:17:46;;;;;;;2.90;2.70;;;;;;;;;;5092889;28;20486;-80
2022/05/18 14:20:19;;;;;;;3.23;2.93;;;;;;;;;;5093409;28;20438;-80
2022/05/18 14:22:49;;;;;;;4.20;3.27;;;;;;;;;;5093629;28;20518;-80
2022/05/18 14:25:17;;;;;;;2.93;2.70;;;;;;;;;;5092553;28;20450;-79
2022/05/18 14:27:46;;;;;;;2.87;2.60;;;;;;;;;;5092708;28;20543;-80
2022/05/18 14:30:16;;;;;;;2.50;2.30;;;;;;;;;;5092577;28;20530;-80
2022/05/18 14:32:45;;;;;;;3.20;2.87;;;;;;;;;;5092774;28;20450;-80
2022/05/18 14:35:13;;;;;;;2.80;2.60;;;;;;;;;;5093324;28;20841;-78
2022/05/18 14:37:43;;;;;;;7.90;2.87;;;;;;;;;;5093186;28;20545;-78
2022/05/18 14:40:11;;;;;;;4.13;2.80;;;;;;;;;;5093220;28;20446;-78
2022/05/18 14:42:45;;;;;;;4.90;3.37;;;;;;;;;;5093185;28;20491;-77
2022/05/18 14:45:20;;;;;;;5.10;2.40;;;;;;;;;;5093097;28;20518;-77
2022/05/18 14:47:48;;;;;;;3.40;2.20;;;;;;;;;;5094000;28;20812;-76
2022/05/18 14:50:18;;;;;;;3.30;2.60;;;;;;;;;;5092799;28;20643;-77
2022/05/18 14:52:52;;;;;;;3.93;2.63;;;;;;;;;;5092653;28;20438;-77
2022/05/18 14:55:22;;;;;;;3.43;2.80;;;;;;;;;;5092790;28;20437;-77
2022/05/18 14:57:49;;;;;;;3.53;2.67;;;;;;;;;;5092596;28;20900;-77
2022/05/18 15:00:22;;;;;;;3.83;2.40;;;;;;;;;;5092428;28;20541;-77
2022/05/18 15:02:51;;;;;;;3.93;2.90;;;;;;;;;;5093499;28;20435;-78
2022/05/18 15:05:19;;;;;;;2.80;2.40;;;;;;;;;;5092676;28;20439;-77